createdAt,value
2018-08-13T00:02:16.046Z,73.20
2018-08-13T00:04:44.460Z,73.40
2018-08-13T00:07:12.869Z,73.30
2018-08-13T00:09:41.481Z,73.30
2018-08-13T00:12:10.668Z,73.50
2018-08-13T00:14:39.268Z,73.30
2018-08-13T00:17:07.837Z,73.40
2018-08-13T00:19:36.606Z,73.80
2018-08-13T00:22:05.478Z,73.70
2018-08-13T00:24:34.004Z,73.80
2018-08-13T00:27:02.497Z,73.80
2018-08-13T00:29:31.048Z,73.70
2018-08-13T00:31:59.555Z,73.70
2018-08-13T00:34:28.049Z,73.90
2018-08-13T00:36:56.511Z,74.10
2018-08-13T00:39:25.076Z,73.80
2018-08-13T00:41:53.617Z,73.20
2018-08-13T00:44:22.857Z,73.20
2018-08-13T00:46:51.361Z,73.20
2018-08-13T00:49:19.850Z,73.50
2018-08-13T00:51:48.289Z,73.80
2018-08-13T00:54:16.808Z,74.10
2018-08-13T00:56:45.324Z,74.10
2018-08-13T00:59:13.825Z,74.30
2018-08-13T01:01:42.403Z,74.30
2018-08-13T01:04:10.906Z,74.20
2018-08-13T01:06:39.511Z,74.00
2018-08-13T01:09:09.156Z,74.30
2018-08-13T01:11:37.862Z,72.60
2018-08-13T01:14:11.094Z,72.30
2018-08-13T01:16:39.621Z,72.30
2018-08-13T01:19:08.170Z,71.50
2018-08-13T01:21:36.661Z,70.50
2018-08-13T01:24:05.148Z,70.30
2018-08-13T01:26:33.842Z,69.20
2018-08-13T01:29:02.335Z,70.10
2018-08-13T01:31:30.764Z,70.30
2018-08-13T01:33:59.283Z,70.40
2018-08-13T01:36:27.809Z,70.40
2018-08-13T01:38:56.373Z,70.30
2018-08-13T01:41:24.865Z,70.50
2018-08-13T01:43:53.346Z,70.60
2018-08-13T01:46:21.934Z,69.70
2018-08-13T01:48:50.424Z,69.30
2018-08-13T01:51:18.900Z,69.80
2018-08-13T01:53:47.423Z,69.80
2018-08-13T01:56:15.986Z,69.80
2018-08-13T01:58:44.617Z,70.00
2018-08-13T02:01:13.278Z,69.80
2018-08-13T02:03:41.847Z,69.90
2018-08-13T02:06:10.526Z,70.10
2018-08-13T02:08:39.357Z,70.40
2018-08-13T02:11:07.734Z,70.50
2018-08-13T02:13:36.269Z,70.50
2018-08-13T02:16:04.757Z,71.10
2018-08-13T02:18:33.400Z,70.30
2018-08-13T02:21:02.017Z,70.20
2018-08-13T02:23:30.600Z,70.50
2018-08-13T02:25:59.104Z,71.20
2018-08-13T02:28:27.547Z,70.60
2018-08-13T02:30:55.925Z,71.00
2018-08-13T02:33:24.488Z,71.00
2018-08-13T02:35:53.065Z,70.60
2018-08-13T02:38:21.527Z,70.60
2018-08-13T02:40:49.993Z,70.40
2018-08-13T02:43:18.542Z,68.60
2018-08-13T02:45:47.092Z,69.30
2018-08-13T02:48:15.625Z,69.00
2018-08-13T02:50:44.294Z,69.60
2018-08-13T02:53:12.881Z,69.90
2018-08-13T02:55:41.309Z,70.00
2018-08-13T02:58:09.976Z,70.10
2018-08-13T03:00:38.521Z,70.10
2018-08-13T03:03:07.334Z,70.10
2018-08-13T03:05:35.842Z,69.90
2018-08-13T03:08:04.893Z,69.40
2018-08-13T03:10:33.489Z,70.00
2018-08-13T03:13:02.224Z,69.20
2018-08-13T03:15:30.629Z,69.40
2018-08-13T03:17:59.278Z,69.60
2018-08-13T03:20:27.761Z,69.70
2018-08-13T03:22:56.202Z,70.10
2018-08-13T03:25:24.713Z,69.50
2018-08-13T03:27:53.381Z,70.00
2018-08-13T03:30:21.846Z,70.40
2018-08-13T03:32:50.520Z,70.20
2018-08-13T03:35:19.150Z,70.00
2018-08-13T03:37:47.721Z,70.10
2018-08-13T03:40:16.263Z,69.90
2018-08-13T03:42:44.814Z,70.40
2018-08-13T03:45:13.275Z,70.50
2018-08-13T03:47:41.842Z,70.20
2018-08-13T03:50:12.176Z,70.10
2018-08-13T03:52:41.299Z,70.30
2018-08-13T03:55:10.936Z,70.30
2018-08-13T03:57:39.989Z,70.50
2018-08-13T04:00:14.098Z,70.70
2018-08-13T04:02:42.578Z,70.90
2018-08-13T04:05:11.632Z,71.10
2018-08-13T04:07:40.021Z,71.00
2018-08-13T04:10:10.000Z,71.30
2018-08-13T04:12:40.081Z,71.30
2018-08-13T04:15:09.999Z,71.00
2018-08-13T04:17:38.621Z,71.20
2018-08-13T04:20:09.224Z,70.80
2018-08-13T04:22:37.778Z,71.00
2018-08-13T04:25:07.352Z,71.10
2018-08-13T04:27:35.900Z,71.00
2018-08-13T04:30:06.593Z,70.80
2018-08-13T04:32:35.260Z,70.20
2018-08-13T04:35:04.540Z,70.50
2018-08-13T04:37:33.058Z,70.40
2018-08-13T04:40:01.856Z,70.70
2018-08-13T04:42:30.296Z,69.50
2018-08-13T04:44:58.712Z,70.30
2018-08-13T04:47:27.228Z,69.90
2018-08-13T04:49:55.726Z,69.70
2018-08-13T04:52:24.213Z,69.30
2018-08-13T04:54:52.621Z,69.40
2018-08-13T04:57:21.140Z,69.80
2018-08-13T04:59:49.662Z,68.60
2018-08-13T05:02:18.110Z,67.00
2018-08-13T05:04:46.630Z,68.10
2018-08-13T05:07:15.269Z,67.90
2018-08-13T05:09:43.758Z,66.40
2018-08-13T05:12:12.221Z,67.60
2018-08-13T05:14:40.909Z,67.30
2018-08-13T05:17:09.397Z,67.00
2018-08-13T05:19:38.246Z,66.80
2018-08-13T05:22:06.764Z,66.30
2018-08-13T05:24:35.320Z,67.20
2018-08-13T05:27:04.157Z,66.70
2018-08-13T05:29:32.524Z,65.20
2018-08-13T05:32:00.925Z,66.40
2018-08-13T05:34:29.385Z,66.00
2018-08-13T05:36:57.878Z,65.20
2018-08-13T05:39:26.808Z,65.40
2018-08-13T05:41:55.268Z,66.70
2018-08-13T05:44:23.827Z,66.20
2018-08-13T05:46:52.323Z,64.30
2018-08-13T05:49:20.804Z,65.70
2018-08-13T05:51:49.259Z,66.60
2018-08-13T05:54:17.678Z,66.70
2018-08-13T05:56:46.079Z,66.70
2018-08-13T05:59:14.458Z,65.70
2018-08-13T06:01:42.916Z,66.10
2018-08-13T06:04:11.356Z,65.30
2018-08-13T06:06:39.787Z,65.40
2018-08-13T06:09:10.548Z,64.50
2018-08-13T06:11:39.150Z,64.00
2018-08-13T06:14:07.627Z,62.10
2018-08-13T06:16:36.333Z,62.00
2018-08-13T06:19:04.816Z,61.10
2018-08-13T06:21:33.292Z,62.80
2018-08-13T06:24:01.755Z,63.10
2018-08-13T06:26:30.226Z,61.50
2018-08-13T06:28:58.783Z,61.60
2018-08-13T06:31:27.301Z,61.30
2018-08-13T06:33:56.693Z,60.80
2018-08-13T06:36:25.120Z,61.30
2018-08-13T06:38:53.569Z,60.70
2018-08-13T06:41:22.000Z,60.50
2018-08-13T06:43:50.319Z,61.70
2018-08-13T06:46:18.809Z,62.20
2018-08-13T06:48:47.208Z,60.10
2018-08-13T06:51:15.719Z,60.40
2018-08-13T06:53:44.257Z,63.10
2018-08-13T06:56:12.696Z,62.50
2018-08-13T06:58:41.152Z,63.20
2018-08-13T07:01:09.732Z,62.00
2018-08-13T07:03:38.129Z,63.10
2018-08-13T07:06:06.672Z,60.20
2018-08-13T07:08:35.040Z,60.80
2018-08-13T07:11:03.436Z,59.20
2018-08-13T07:13:31.963Z,60.30
2018-08-13T07:16:00.469Z,60.60
2018-08-13T07:18:28.992Z,62.90
2018-08-13T07:20:57.596Z,61.30
2018-08-13T07:23:26.089Z,60.60
2018-08-13T07:25:54.542Z,62.90
2018-08-13T07:28:23.024Z,62.70
2018-08-13T07:30:51.474Z,62.80
2018-08-13T07:33:19.934Z,63.80
2018-08-13T07:35:48.378Z,65.70
2018-08-13T07:38:16.848Z,66.00
2018-08-13T07:40:45.332Z,64.90
2018-08-13T07:43:13.746Z,66.20
2018-08-13T07:45:42.189Z,66.70
2018-08-13T07:48:10.709Z,66.70
2018-08-13T07:50:39.266Z,67.70
2018-08-13T07:53:07.690Z,66.50
2018-08-13T07:55:36.186Z,65.30
2018-08-13T07:58:04.828Z,65.50
2018-08-13T08:00:33.450Z,64.90
2018-08-13T08:03:02.106Z,64.90
2018-08-13T08:05:31.401Z,63.30
2018-08-13T08:07:59.846Z,62.80
2018-08-13T08:10:28.406Z,62.70
2018-08-13T08:12:56.944Z,62.80
2018-08-13T08:15:25.325Z,63.30
2018-08-13T08:17:53.853Z,64.00
2018-08-13T08:20:22.360Z,64.30
2018-08-13T08:22:50.731Z,64.50
2018-08-13T08:25:20.726Z,63.30
2018-08-13T08:27:49.561Z,63.60
2018-08-13T08:30:18.098Z,64.10
2018-08-13T08:32:46.725Z,64.50
2018-08-13T08:35:16.437Z,63.70
2018-08-13T08:37:45.347Z,63.80
2018-08-13T08:40:17.183Z,62.80
2018-08-13T08:42:45.854Z,62.50
2018-08-13T08:45:19.921Z,63.50
2018-08-13T08:47:48.747Z,63.80
2018-08-13T08:50:17.156Z,63.20
2018-08-13T08:52:46.761Z,63.30
2018-08-13T08:55:16.064Z,62.90
2018-08-13T08:57:44.753Z,62.80
2018-08-13T09:00:15.512Z,62.90
2018-08-13T09:02:44.112Z,61.90
2018-08-13T09:05:12.578Z,62.60
2018-08-13T09:07:41.832Z,61.70
2018-08-13T09:10:10.320Z,61.30
2018-08-13T09:12:39.012Z,61.70
2018-08-13T09:15:08.936Z,62.20
2018-08-13T09:17:48.520Z,62.60
2018-08-13T09:20:28.232Z,62.80
2018-08-13T09:23:08.101Z,63.00
2018-08-13T09:25:48.202Z,62.90
2018-08-13T09:28:27.812Z,63.40
2018-08-13T09:31:07.732Z,64.40
2018-08-13T09:33:47.367Z,64.90
2018-08-13T09:36:16.216Z,65.50
2018-08-13T09:38:44.785Z,65.50
2018-08-13T09:41:13.325Z,63.50
2018-08-13T09:43:41.801Z,63.80
2018-08-13T09:46:10.266Z,63.70
2018-08-13T09:48:38.727Z,64.30
2018-08-13T09:51:07.188Z,65.70
2018-08-13T09:53:35.601Z,65.10
2018-08-13T09:56:04.232Z,66.10
2018-08-13T09:58:32.729Z,66.60
2018-08-13T10:01:09.256Z,66.80
2018-08-13T10:03:37.789Z,66.20
2018-08-13T10:06:06.318Z,66.70
2018-08-13T10:08:34.840Z,66.80
2018-08-13T10:11:03.328Z,67.10
2018-08-13T10:13:31.744Z,67.50
2018-08-13T10:16:18.117Z,68.10
2018-08-13T10:18:46.755Z,68.60
2018-08-13T10:21:15.230Z,68.60
2018-08-13T10:23:43.681Z,68.90
2018-08-13T10:26:12.422Z,68.40
2018-08-13T10:28:41.204Z,68.40
2018-08-13T10:31:09.966Z,67.90
2018-08-13T10:33:38.594Z,67.50
2018-08-13T10:36:07.052Z,68.60
2018-08-13T10:38:35.509Z,69.00
2018-08-13T10:41:03.931Z,69.00
2018-08-13T10:43:32.444Z,68.70
2018-08-13T10:46:01.678Z,68.40
2018-08-13T10:48:30.226Z,68.60
2018-08-13T10:50:58.875Z,67.80
2018-08-13T10:53:27.757Z,68.30
2018-08-13T10:55:56.613Z,68.80
2018-08-13T10:58:25.203Z,68.90
2018-08-13T11:00:53.797Z,69.10
2018-08-13T11:03:22.417Z,68.40
2018-08-13T11:05:50.900Z,68.80
2018-08-13T11:08:20.039Z,69.10
2018-08-13T11:10:48.964Z,69.10
2018-08-13T11:13:18.869Z,69.20
2018-08-13T11:16:10.078Z,69.40
2018-08-13T11:18:38.724Z,69.80
2018-08-13T11:21:08.014Z,70.40
2018-08-13T11:23:41.020Z,69.30
2018-08-13T11:26:10.050Z,69.70
2018-08-13T11:28:39.259Z,69.20
2018-08-13T11:31:08.183Z,69.50
2018-08-13T11:33:38.465Z,69.60
2018-08-13T11:36:07.112Z,69.80
2018-08-13T11:38:37.924Z,68.80
2018-08-13T11:41:06.610Z,68.30
2018-08-13T11:43:35.096Z,67.60
2018-08-13T11:46:03.767Z,67.80
2018-08-13T11:48:32.296Z,68.90
2018-08-13T11:51:00.841Z,66.90
2018-08-13T11:53:29.389Z,64.70
2018-08-13T11:55:58.625Z,64.40
2018-08-13T11:58:27.455Z,63.30
2018-08-13T12:00:58.424Z,62.30
2018-08-13T12:03:28.266Z,61.70
2018-08-13T12:05:57.053Z,61.10
2018-08-13T12:08:25.791Z,60.40
2018-08-13T12:10:54.756Z,60.50
2018-08-13T12:13:26.480Z,60.20
2018-08-13T12:15:56.505Z,58.90
2018-08-13T12:18:28.238Z,57.30
2018-08-13T12:20:57.684Z,57.00
2018-08-13T12:23:27.277Z,56.10
2018-08-13T12:25:55.829Z,55.00
2018-08-13T12:28:31.719Z,55.90
2018-08-13T12:31:07.261Z,54.60
2018-08-13T12:33:42.030Z,54.30
2018-08-13T12:36:11.577Z,52.90
2018-08-13T12:41:31.706Z,52.60
2018-08-13T12:44:06.608Z,51.00
2018-08-13T12:46:35.204Z,52.20
2018-08-13T12:49:17.899Z,51.80
2018-08-13T12:51:49.802Z,51.60
2018-08-13T12:54:19.720Z,51.90
2018-08-13T12:56:48.296Z,52.00
2018-08-13T12:59:16.921Z,51.50
2018-08-13T13:01:46.382Z,50.30
2018-08-13T13:04:14.910Z,50.30
2018-08-13T13:06:43.332Z,49.90
2018-08-13T13:09:13.082Z,50.50
2018-08-13T13:11:42.363Z,49.80
2018-08-13T13:14:11.520Z,50.50
2018-08-13T13:16:40.270Z,51.20
2018-08-13T13:19:13.522Z,51.70
2018-08-13T13:21:49.297Z,52.10
2018-08-13T13:24:20.200Z,52.80
2018-08-13T13:26:54.733Z,53.30
2018-08-13T13:29:29.584Z,53.90
2018-08-13T13:32:00.561Z,54.70
2018-08-13T13:34:33.019Z,54.60
2018-08-13T13:37:04.066Z,54.50
2018-08-13T13:39:33.042Z,55.00
2018-08-13T13:42:10.649Z,54.10
2018-08-13T14:30:48.822Z,54.80
2018-08-13T14:36:19.153Z,54.30
2018-08-13T14:38:47.576Z,54.40
2018-08-13T14:41:26.870Z,55.60
2018-08-13T14:44:01.337Z,56.90
2018-08-13T14:46:32.179Z,58.90
2018-08-13T14:49:00.694Z,59.10
2018-08-13T14:51:30.075Z,59.90
2018-08-13T14:53:59.044Z,59.80
2018-08-13T14:56:33.065Z,60.30
2018-08-13T14:59:01.710Z,59.70
2018-08-13T15:01:32.544Z,60.70
2018-08-13T15:04:01.034Z,60.90
2018-08-13T15:06:29.641Z,60.20
2018-08-13T15:08:58.136Z,60.50
2018-08-13T15:11:32.723Z,60.20
2018-08-13T15:14:04.349Z,61.00
2018-08-13T15:16:34.140Z,63.90
2018-08-13T15:19:04.041Z,64.90
2018-08-13T15:21:32.938Z,65.20
2018-08-13T15:24:01.665Z,66.10
2018-08-13T15:26:31.553Z,66.70
2018-08-13T15:29:01.309Z,66.80
2018-08-13T15:31:33.449Z,69.00
2018-08-13T15:34:02.204Z,69.90
2018-08-13T15:36:31.281Z,71.20
2018-08-13T15:41:45.884Z,71.20
2018-08-13T15:44:27.841Z,72.10
2018-08-13T15:46:56.533Z,73.20
2018-08-13T15:49:24.932Z,72.70
2018-08-13T15:51:53.490Z,74.00
2018-08-13T15:54:22.916Z,73.50
2018-08-13T15:56:57.815Z,74.60
2018-08-13T15:59:27.391Z,75.20
2018-08-13T16:02:01.722Z,76.60
2018-08-13T16:04:30.312Z,77.10
2018-08-13T16:09:50.227Z,78.20
2018-08-13T16:12:18.833Z,77.60
2018-08-13T16:14:48.133Z,79.70
2018-08-13T16:17:16.609Z,79.00
2018-08-13T16:19:45.373Z,78.80
2018-08-13T16:22:13.913Z,79.50
2018-08-13T16:24:46.114Z,79.10
2018-08-13T16:27:15.311Z,79.50
2018-08-13T16:29:44.385Z,80.70
2018-08-13T16:32:13.053Z,79.10
2018-08-13T16:34:42.064Z,78.70
2018-08-13T16:37:10.854Z,79.30
2018-08-13T16:39:39.476Z,78.60
2018-08-13T16:42:08.174Z,79.60
2018-08-13T16:44:36.921Z,79.70
2018-08-13T16:47:05.501Z,79.90
2018-08-13T16:49:34.143Z,79.60
2018-08-13T16:52:03.531Z,80.10
2018-08-13T16:54:32.352Z,80.50
2018-08-13T16:57:01.551Z,80.80
2018-08-13T16:59:30.125Z,80.30
2018-08-13T17:01:58.694Z,79.80
2018-08-13T17:04:27.791Z,79.60
2018-08-13T17:06:57.010Z,80.00
2018-08-13T17:09:25.891Z,80.10
2018-08-13T17:11:54.491Z,80.40
2018-08-13T17:30:37.137Z,81.10
2018-08-13T17:33:14.817Z,80.90
2018-08-13T17:35:46.566Z,82.00
2018-08-13T17:41:22.198Z,82.10
2018-08-13T17:43:53.865Z,81.60
2018-08-13T17:46:33.285Z,82.60
2018-08-13T17:49:03.989Z,82.30
2018-08-13T17:51:41.397Z,82.80
2018-08-13T17:54:12.246Z,83.20
2018-08-13T17:56:58.502Z,82.10
2018-08-13T18:01:08.850Z,81.70
2018-08-13T18:03:46.561Z,81.70
2018-08-13T18:06:15.428Z,81.90
2018-08-13T18:08:43.950Z,81.30
2018-08-13T18:11:13.281Z,81.40
2018-08-13T18:13:41.832Z,81.60
2018-08-13T18:16:11.018Z,81.80
2018-08-13T18:18:39.484Z,81.40
2018-08-13T18:21:09.668Z,82.30
2018-08-13T18:23:38.466Z,83.40
2018-08-13T18:26:06.902Z,82.60
2018-08-13T18:28:35.445Z,82.60
2018-08-13T18:31:04.041Z,82.70
2018-08-13T18:33:32.946Z,82.60
2018-08-13T18:36:01.537Z,82.90
2018-08-13T18:38:30.788Z,82.90
2018-08-13T18:41:03.655Z,83.40
2018-08-13T18:43:32.094Z,83.40
2018-08-13T18:46:01.692Z,84.20
2018-08-13T18:48:30.282Z,83.80
2018-08-13T18:50:58.800Z,84.60
2018-08-13T18:53:27.265Z,83.90
2018-08-13T18:55:56.502Z,83.60
2018-08-13T18:58:24.983Z,83.30
2018-08-13T19:00:55.810Z,83.20
2018-08-13T19:03:24.269Z,84.00
2018-08-13T19:05:54.316Z,83.70
2018-08-13T19:08:22.904Z,83.10
2018-08-13T19:10:51.366Z,83.60
2018-08-13T19:13:20.704Z,83.10
2018-08-13T19:15:50.396Z,83.60
2018-08-13T19:18:18.918Z,83.00
2018-08-13T19:20:47.470Z,83.60
2018-08-13T19:23:16.000Z,83.10
2018-08-13T19:25:44.669Z,83.50
2018-08-13T19:28:13.128Z,83.80
2018-08-13T19:30:41.574Z,83.70
2018-08-13T19:33:09.962Z,83.80
2018-08-13T19:35:39.231Z,84.20
2018-08-13T19:38:07.709Z,84.50
2018-08-13T19:40:37.124Z,84.40
2018-08-13T19:43:05.802Z,84.10
2018-08-13T19:45:34.829Z,84.20
2018-08-13T19:48:03.415Z,84.00
2018-08-13T19:50:31.930Z,84.30
2018-08-13T19:53:00.475Z,84.50
2018-08-13T19:55:28.932Z,84.50
2018-08-13T19:57:57.422Z,83.80
2018-08-13T20:00:28.156Z,84.10
2018-08-13T20:02:56.634Z,83.50
2018-08-13T20:05:26.223Z,83.90
2018-08-13T20:07:55.334Z,83.40
2018-08-13T20:10:23.907Z,82.90
2018-08-13T20:12:52.532Z,83.70
2018-08-13T20:15:21.037Z,83.20
2018-08-13T20:17:49.636Z,84.00
2018-08-13T20:20:19.333Z,83.80
2018-08-13T20:22:48.862Z,84.00
2018-08-13T20:25:18.506Z,83.70
2018-08-13T20:27:47.531Z,83.50
2018-08-13T20:30:22.068Z,83.70
2018-08-13T20:32:51.243Z,83.30
2018-08-13T20:35:19.956Z,83.10
2018-08-13T20:37:48.482Z,83.00
2018-08-13T20:40:18.363Z,83.00
2018-08-13T20:42:47.533Z,82.70
2018-08-13T20:45:17.690Z,83.50
2018-08-13T20:47:46.645Z,83.50
2018-08-13T20:50:18.086Z,84.70
2018-08-13T20:52:47.556Z,84.00
2018-08-13T20:55:18.406Z,84.00
2018-08-13T20:57:47.871Z,84.10
2018-08-13T21:00:18.300Z,83.80
2018-08-13T21:02:47.520Z,84.30
2018-08-13T21:05:16.585Z,84.00
2018-08-13T21:07:46.013Z,83.70
2018-08-13T21:10:16.576Z,83.80
2018-08-13T21:12:44.969Z,84.30
2018-08-13T21:15:14.575Z,84.30
2018-08-13T21:17:43.065Z,83.90
2018-08-13T21:20:14.973Z,84.20
2018-08-13T21:22:43.444Z,84.20
2018-08-13T21:25:13.100Z,83.90
2018-08-13T21:27:42.408Z,84.00
2018-08-13T21:30:11.153Z,83.70
2018-08-13T21:32:40.304Z,84.00
2018-08-13T21:35:09.052Z,84.10
2018-08-13T21:37:37.629Z,84.00
2018-08-13T21:40:07.775Z,84.10
2018-08-13T21:42:36.296Z,84.20
2018-08-13T21:45:05.149Z,84.20
2018-08-13T21:47:33.564Z,84.70
2018-08-13T21:50:04.653Z,84.40
2018-08-13T21:52:33.115Z,84.30
2018-08-13T21:55:02.170Z,84.00
2018-08-13T21:57:31.410Z,84.10
2018-08-13T21:59:59.900Z,84.10
2018-08-13T22:02:28.420Z,84.30
2018-08-13T22:04:56.886Z,84.10
2018-08-13T22:07:25.398Z,84.20
2018-08-13T22:09:53.889Z,84.30
2018-08-13T22:12:22.271Z,84.80
2018-08-13T22:14:50.737Z,84.40
2018-08-13T22:17:19.210Z,84.30
2018-08-13T22:19:47.622Z,84.00
2018-08-13T22:22:16.158Z,84.60
2018-08-13T22:24:55.573Z,84.20
2018-08-13T22:27:24.093Z,84.70
2018-08-13T22:29:52.550Z,85.20
2018-08-13T22:32:21.064Z,85.00
2018-08-13T22:34:49.665Z,85.10
2018-08-13T22:37:18.158Z,85.50
2018-08-13T22:39:46.625Z,85.50
2018-08-13T22:42:15.129Z,86.10
2018-08-13T22:44:43.600Z,86.20
2018-08-13T22:47:12.014Z,85.10
2018-08-13T22:49:40.456Z,85.60
2018-08-13T22:52:09.000Z,85.40
2018-08-13T22:54:37.486Z,85.90
2018-08-13T22:57:05.923Z,85.30
2018-08-13T22:59:34.372Z,85.20
2018-08-13T23:02:02.943Z,85.90
2018-08-13T23:04:31.416Z,85.80
2018-08-13T23:06:59.853Z,86.00
2018-08-13T23:09:28.281Z,85.60
2018-08-13T23:11:56.820Z,85.80
2018-08-13T23:14:25.291Z,85.90
2018-08-13T23:16:53.754Z,86.00
2018-08-13T23:19:22.186Z,85.70
2018-08-13T23:21:50.768Z,85.50
2018-08-13T23:24:19.247Z,85.10
2018-08-13T23:26:47.724Z,85.80
2018-08-13T23:29:16.152Z,85.30
2018-08-13T23:31:44.529Z,85.80
2018-08-13T23:34:12.985Z,85.60
2018-08-13T23:36:41.408Z,85.00
2018-08-13T23:39:12.014Z,85.40
2018-08-13T23:41:40.668Z,85.50
2018-08-13T23:44:09.451Z,85.50
2018-08-13T23:46:37.898Z,85.40
2018-08-13T23:49:06.382Z,85.60
2018-08-13T23:51:35.084Z,85.90
2018-08-13T23:54:03.501Z,85.40
2018-08-13T23:56:31.978Z,85.70
2018-08-13T23:59:00.357Z,86.00
